Time;durP1;ratioP1;P1;durP2;ratioP2;P2;SDS_P1;SDS_P2;PMS_P1;PMS_P2;Temp;Humidity;BMP_temperature;BMP_pressure;BME280_temperature;BME280_humidity;BME280_pressure;Samples;Min_cycle;Max_cycle;Signal;HPM_P1;HPM_P2
2023/10/06 00:01:00;;;;;;;9.52;6.07;;;13.80;99.90;;;;;;4958827;28;89877;-33
2023/10/06 00:03:26;;;;;;;12.85;5.85;;;13.80;99.90;;;;;;4962760;28;89224;-33
2023/10/06 00:05:53;;;;;;;13.68;6.97;;;13.80;99.90;;;;;;4977675;28;89185;-36
2023/10/06 00:08:22;;;;;;;11.65;6.38;;;13.80;99.90;;;;;;4981290;28;90545;-34
2023/10/06 00:10:54;;;;;;;12.68;7.55;;;13.80;99.90;;;;;;4976415;28;90327;-34
2023/10/06 00:13:28;;;;;;;8.35;6.18;;;13.80;99.90;;;;;;4973753;28;87514;-33
2023/10/06 00:15:55;;;;;;;18.55;7.70;;;13.80;99.90;;;;;;4955526;28;88882;-33
2023/10/06 00:18:23;;;;;;;10.38;6.80;;;13.80;99.90;;;;;;4980382;28;89838;-33
2023/10/06 00:20:50;;;;;;;17.48;7.15;;;13.80;99.90;;;;;;4980824;28;89611;-34
2023/10/06 00:23:22;;;;;;;13.93;6.30;;;13.80;99.90;;;;;;4980692;28;88381;-32
2023/10/06 00:25:54;;;;;;;12.13;7.22;;;13.80;99.90;;;;;;4981623;28;88303;-33
2023/10/06 00:28:27;;;;;;;10.20;6.72;;;13.80;99.90;;;;;;4967672;28;90128;-33
2023/10/06 00:30:57;;;;;;;10.52;7.88;;;13.80;99.90;;;;;;4981331;28;89229;-33
2023/10/06 00:33:44;;;;;;;9.18;6.68;;;13.80;99.90;;;;;;4967770;28;89262;-33
2023/10/06 00:36:16;;;;;;;14.10;8.38;;;13.80;99.90;;;;;;4981461;28;88428;-33
2023/10/06 00:38:47;;;;;;;9.57;6.90;;;13.80;99.90;;;;;;4981729;28;88656;-35
2023/10/06 00:41:15;;;;;;;15.90;7.15;;;13.80;99.90;;;;;;4960801;28;89920;-36
2023/10/06 00:43:43;;;;;;;8.00;7.20;;;13.80;99.90;;;;;;4960999;28;89210;-33
2023/10/06 00:46:10;;;;;;;12.52;7.70;;;13.80;99.90;;;;;;4981459;28;89026;-34
2023/10/06 00:48:41;;;;;;;14.52;9.07;;;13.90;99.90;;;;;;4980865;28;90332;-34
2023/10/06 00:51:19;;;;;;;11.75;9.50;;;13.90;99.90;;;;;;4967184;28;89656;-33
2023/10/06 00:53:52;;;;;;;17.15;9.73;;;13.90;99.90;;;;;;4980051;28;89970;-32
2023/10/06 00:56:23;;;;;;;13.95;9.10;;;13.90;99.90;;;;;;4978359;28;88570;-34
2023/10/06 00:58:49;;;;;;;14.13;9.85;;;13.90;99.90;;;;;;4979609;28;89044;-31
2023/10/06 01:01:18;;;;;;;16.95;10.02;;;14.00;99.90;;;;;;4975152;28;89109;-33
2023/10/06 01:03:48;;;;;;;14.32;9.65;;;14.00;99.90;;;;;;4967785;28;89439;-34
2023/10/06 01:06:14;;;;;;;16.05;9.50;;;13.90;99.90;;;;;;4971607;28;87667;-33
2023/10/06 01:08:52;;;;;;;11.63;9.63;;;13.90;99.90;;;;;;4977107;28;90946;-35
2023/10/06 01:11:19;;;;;;;12.45;9.05;;;13.90;99.90;;;;;;4949464;28;89561;-33
2023/10/06 01:13:54;;;;;;;14.80;9.20;;;13.90;99.90;;;;;;4972191;28;88076;-34
2023/10/06 01:16:34;;;;;;;11.63;8.77;;;14.00;99.90;;;;;;4970486;28;90607;-32
2023/10/06 01:19:14;;;;;;;17.63;9.70;;;13.90;99.90;;;;;;4960649;28;90527;-32
2023/10/06 01:21:47;;;;;;;16.23;8.57;;;13.90;99.90;;;;;;4971657;28;89279;-32
2023/10/06 01:24:23;;;;;;;16.02;10.82;;;13.90;99.90;;;;;;4950000;28;89111;-35
2023/10/06 01:26:49;;;;;;;17.92;9.45;;;13.90;99.90;;;;;;4973033;28;88131;-36
2023/10/06 01:29:15;;;;;;;14.43;9.50;;;14.00;99.90;;;;;;4969107;28;89883;-32
2023/10/06 01:31:41;;;;;;;16.73;10.10;;;13.90;99.90;;;;;;4972126;28;88558;-35
2023/10/06 01:34:08;;;;;;;14.20;9.27;;;14.00;99.90;;;;;;4967910;28;89880;-34
2023/10/06 01:36:35;;;;;;;16.80;8.77;;;14.00;99.90;;;;;;4963050;28;89073;-31
2023/10/06 01:39:05;;;;;;;11.33;8.90;;;14.00;99.90;;;;;;4977836;28;90535;-32
2023/10/06 01:41:34;;;;;;;12.50;10.55;;;14.00;99.90;;;;;;4959961;28;89317;-34
2023/10/06 01:44:02;;;;;;;11.32;9.25;;;13.90;99.90;;;;;;4959323;28;89211;-33
2023/10/06 01:46:28;;;;;;;14.47;10.10;;;14.00;99.90;;;;;;4964446;28;87681;-35
2023/10/06 01:48:54;;;;;;;13.65;8.65;;;13.90;99.90;;;;;;4969144;28;90239;-32
2023/10/06 01:51:22;;;;;;;11.13;8.25;;;14.00;99.90;;;;;;4963321;28;90204;-32
2023/10/06 01:53:49;;;;;;;15.60;9.88;;;13.90;99.90;;;;;;4970351;28;88007;-32
2023/10/06 01:56:21;;;;;;;13.52;8.30;;;13.90;99.90;;;;;;4959916;28;89778;-32
2023/10/06 01:58:50;;;;;;;9.98;9.00;;;13.90;99.90;;;;;;4961106;28;90599;-34
2023/10/06 02:01:18;;;;;;;11.73;6.80;;;13.90;99.90;;;;;;4960095;28;88467;-34
2023/10/06 02:03:44;;;;;;;10.82;8.90;;;13.90;99.90;;;;;;4960800;28;88352;-34
2023/10/06 02:06:15;;;;;;;14.38;9.05;;;13.90;99.90;;;;;;4979466;28;90220;-33
2023/10/06 02:08:43;;;;;;;11.90;8.75;;;13.90;99.90;;;;;;4964910;28;90266;-33
2023/10/06 02:11:08;;;;;;;13.43;9.17;;;13.90;99.90;;;;;;4970831;28;90244;-34
2023/10/06 02:13:35;;;;;;;14.95;9.07;;;13.90;99.90;;;;;;4974039;28;87792;-33
2023/10/06 02:16:03;;;;;;;14.68;9.82;;;13.90;99.90;;;;;;4978564;28;87853;-34
2023/10/06 02:18:36;;;;;;;17.38;9.02;;;13.90;99.90;;;;;;4965720;28;90697;-33
2023/10/06 02:21:12;;;;;;;14.32;9.13;;;13.90;99.90;;;;;;4979379;28;89403;-33
2023/10/06 02:23:38;;;;;;;9.75;8.18;;;13.90;99.90;;;;;;4960549;28;89841;-32
2023/10/06 02:26:09;;;;;;;13.55;8.68;;;13.90;99.90;;;;;;4971039;28;90148;-34
2023/10/06 02:28:40;;;;;;;13.68;9.63;;;13.90;99.90;;;;;;4974268;28;89848;-33
2023/10/06 02:31:06;;;;;;;17.75;10.43;;;13.90;99.90;;;;;;4971677;28;89493;-34
2023/10/06 02:33:36;;;;;;;13.10;9.43;;;13.90;99.90;;;;;;4959426;28;87860;-31
2023/10/06 02:36:15;;;;;;;12.40;8.43;;;13.90;99.90;;;;;;4961164;28;88594;-35
2023/10/06 02:38:41;;;;;;;13.50;9.43;;;13.90;99.90;;;;;;4976607;28;89047;-33
2023/10/06 02:41:07;;;;;;;19.83;8.55;;;13.90;99.90;;;;;;4974330;28;89878;-35
2023/10/06 02:43:34;;;;;;;10.15;8.73;;;13.90;99.90;;;;;;4976418;28;89404;-34
2023/10/06 02:46:07;;;;;;;15.15;9.68;;;13.90;99.90;;;;;;4982437;28;89885;-34
2023/10/06 02:48:33;;;;;;;9.60;7.85;;;13.90;99.90;;;;;;4957643;28;90434;-33
2023/10/06 02:51:01;;;;;;;16.17;10.57;;;13.90;99.90;;;;;;4981894;28;89878;-34
2023/10/06 02:53:29;;;;;;;13.10;8.63;;;13.90;99.90;;;;;;4982872;28;89129;-32
2023/10/06 02:55:55;;;;;;;11.95;9.20;;;13.90;99.90;;;;;;4981975;28;88798;-35
2023/10/06 02:58:30;;;;;;;12.70;10.02;;;13.80;99.90;;;;;;4982928;28;89758;-33
2023/10/06 03:00:56;;;;;;;11.30;8.55;;;13.80;99.90;;;;;;4980894;28;89469;-34
2023/10/06 03:03:26;;;;;;;11.50;8.85;;;13.90;99.90;;;;;;4972689;28;88518;-33
2023/10/06 03:05:53;;;;;;;14.57;9.55;;;13.80;99.90;;;;;;4975510;28;87730;-34
2023/10/06 03:08:27;;;;;;;13.82;10.35;;;13.80;99.90;;;;;;4974185;28;91146;-32
2023/10/06 03:10:53;;;;;;;12.00;9.20;;;13.80;99.90;;;;;;4968595;28;89616;-33
2023/10/06 03:13:35;;;;;;;17.30;9.05;;;13.80;99.90;;;;;;4970117;28;89557;-35
2023/10/06 03:16:03;;;;;;;13.98;9.15;;;13.80;99.90;;;;;;4962975;28;87642;-34
2023/10/06 03:18:30;;;;;;;13.67;9.80;;;13.80;99.90;;;;;;4963188;28;90857;-33
2023/10/06 03:21:14;;;;;;;17.15;9.57;;;13.80;99.90;;;;;;4962918;28;89247;-36
2023/10/06 03:23:44;;;;;;;11.90;8.77;;;13.80;99.90;;;;;;4966716;28;89125;-34
2023/10/06 03:26:28;;;;;;;15.38;9.85;;;13.80;99.90;;;;;;4981176;28;89188;-31
2023/10/06 03:29:01;;;;;;;13.43;9.85;;;13.70;99.90;;;;;;4959546;28;89721;-35
2023/10/06 03:31:44;;;;;;;11.35;9.68;;;13.70;99.90;;;;;;4981533;28;89446;-35
2023/10/06 03:34:15;;;;;;;10.82;9.00;;;13.70;99.90;;;;;;4982676;28;88722;-33
2023/10/06 03:36:46;;;;;;;15.50;10.18;;;13.70;99.90;;;;;;4981828;28;88263;-33
2023/10/06 03:39:13;;;;;;;20.25;10.35;;;13.60;99.90;;;;;;4976935;28;90158;-34
2023/10/06 03:41:41;;;;;;;13.73;8.27;;;13.60;99.90;;;;;;4971805;28;89681;-32
2023/10/06 03:44:06;;;;;;;;;;;13.60;99.90;;;;;;4981160;28;88855;-34
2023/10/06 03:46:37;;;;;;;11.07;6.10;;;13.60;99.90;;;;;;4974657;28;88296;-33
2023/10/06 03:49:03;;;;;;;14.15;9.40;;;13.50;99.90;;;;;;4969842;28;89791;-31
2023/10/06 03:51:29;;;;;;;14.13;9.68;;;13.50;99.90;;;;;;4961646;28;90106;-32
2023/10/06 03:53:56;;;;;;;11.02;9.63;;;13.50;99.90;;;;;;4962688;28;88795;-32
2023/10/06 03:56:22;;;;;;;12.48;8.95;;;13.50;99.90;;;;;;4962981;28;90540;-34
2023/10/06 03:58:48;;;;;;;14.27;9.27;;;13.50;99.90;;;;;;4963079;28;90687;-34
2023/10/06 04:01:19;;;;;;;14.98;9.60;;;13.50;99.90;;;;;;4961732;28;91157;-32
2023/10/06 04:03:47;;;;;;;15.23;9.70;;;13.50;99.90;;;;;;4962658;28;87576;-36
2023/10/06 04:06:15;;;;;;;10.07;8.70;;;13.50;99.90;;;;;;4949068;28;89450;-34
2023/10/06 04:08:44;;;;;;;;;;;13.50;99.90;;;;;;4962281;28;90900;-32
2023/10/06 04:11:14;;;;;;;12.10;8.90;;;13.50;99.90;;;;;;4962730;28;88880;-33
2023/10/06 04:13:41;;;;;;;13.23;9.23;;;13.50;99.90;;;;;;4962506;28;89691;-32
2023/10/06 04:16:07;;;;;;;14.18;9.60;;;13.40;99.90;;;;;;4962229;28;88619;-34
2023/10/06 04:18:32;;;;;;;17.65;9.32;;;13.40;99.90;;;;;;4961589;28;90160;-34
2023/10/06 04:20:59;;;;;;;17.25;9.35;;;13.40;99.90;;;;;;4961069;28;89685;-33
2023/10/06 04:23:25;;;;;;;11.80;9.10;;;13.40;99.90;;;;;;4962619;28;89060;-32
2023/10/06 04:25:55;;;;;;;12.32;8.52;;;13.40;99.90;;;;;;4970719;28;88040;-34
2023/10/06 04:28:23;;;;;;;14.00;8.85;;;13.40;99.90;;;;;;4977826;28;90538;-34
2023/10/06 04:30:49;;;;;;;14.32;8.88;;;13.40;99.90;;;;;;4961504;28;89875;-33
2023/10/06 04:33:18;;;;;;;13.60;8.88;;;13.40;99.90;;;;;;4962791;28;88747;-33
2023/10/06 04:38:30;;;;;;;11.70;8.30;;;13.40;99.90;;;;;;4972260;28;90223;-33
2023/10/06 04:40:56;;;;;;;12.52;8.70;;;13.40;99.90;;;;;;4957616;28;90037;-35
2023/10/06 04:43:23;;;;;;;12.07;8.90;;;13.40;99.90;;;;;;4953301;28;88351;-34
2023/10/06 04:45:50;;;;;;;12.57;8.82;;;13.40;99.90;;;;;;4974699;28;87607;-31
2023/10/06 04:48:18;;;;;;;11.15;9.05;;;13.30;99.90;;;;;;4974168;28;89788;-35
2023/10/06 04:50:45;;;;;;;18.75;10.30;;;13.30;99.90;;;;;;4960681;28;89004;-34
2023/10/06 04:53:11;;;;;;;15.88;8.63;;;13.30;99.90;;;;;;4959523;28;89457;-35
2023/10/06 04:55:40;;;;;;;14.35;7.00;;;13.30;99.90;;;;;;4961481;28;88446;-32
2023/10/06 04:58:09;;;;;;;;;;;13.30;99.90;;;;;;4961827;28;92285;-34
2023/10/06 05:00:35;;;;;;;16.77;9.10;;;13.30;99.90;;;;;;4961366;28;90070;-36
2023/10/06 05:03:06;;;;;;;19.63;9.80;;;13.20;99.90;;;;;;4961221;28;89867;-36
2023/10/06 05:05:37;;;;;;;13.50;9.88;;;13.20;99.90;;;;;;4961276;28;88986;-34
2023/10/06 05:08:04;;;;;;;10.23;9.10;;;13.20;99.90;;;;;;4960909;28;91195;-33
2023/10/06 05:10:31;;;;;;;11.00;8.63;;;13.10;99.90;;;;;;4960799;28;89308;-32
2023/10/06 05:12:59;;;;;;;15.75;9.90;;;13.10;99.90;;;;;;4961933;28;87722;-33
2023/10/06 05:15:26;;;;;;;17.63;9.57;;;13.10;99.90;;;;;;4954420;28;90318;-35
2023/10/06 05:17:58;;;;;;;24.40;9.60;;;13.10;99.90;;;;;;4960635;28;90466;-37
2023/10/06 05:20:31;;;;;;;13.15;8.75;;;13.10;99.90;;;;;;4960128;28;90636;-34
2023/10/06 05:23:07;;;;;;;12.02;8.48;;;13.10;99.90;;;;;;4961871;28;87554;-34
2023/10/06 05:25:34;;;;;;;17.42;9.27;;;13.10;99.90;;;;;;4961530;28;88937;-33
2023/10/06 05:28:00;;;;;;;12.85;9.65;;;13.10;99.90;;;;;;4960418;28;90343;-32
2023/10/06 05:30:29;;;;;;;15.98;10.40;;;13.10;99.90;;;;;;4961357;28;89938;-35
2023/10/06 05:32:59;;;;;;;10.90;8.75;;;13.10;99.90;;;;;;4960439;28;88217;-33
2023/10/06 05:35:29;;;;;;;20.08;9.43;;;13.00;99.90;;;;;;4962020;28;88030;-35
2023/10/06 05:37:55;;;;;;;14.43;9.43;;;13.00;99.90;;;;;;4967360;28;88946;-35
2023/10/06 05:40:21;;;;;;;15.40;9.95;;;13.00;99.90;;;;;;4967274;28;90058;-31
2023/10/06 05:42:49;;;;;;;13.50;9.82;;;13.00;99.90;;;;;;4994412;22;88129;-33
2023/10/06 05:45:15;;;;;;;14.80;9.90;;;13.00;99.90;;;;;;4960677;28;88314;-34
2023/10/06 05:47:45;;;;;;;10.57;9.40;;;13.00;99.90;;;;;;4973761;28;90397;-35
2023/10/06 05:50:11;;;;;;;14.57;9.73;;;13.00;99.90;;;;;;4967649;28;89347;-34
2023/10/06 05:52:38;;;;;;;17.25;10.45;;;13.00;99.90;;;;;;4979938;28;89496;-33
2023/10/06 05:55:09;;;;;;;14.35;9.70;;;13.00;99.90;;;;;;4972035;28;89059;-35
2023/10/06 05:57:39;;;;;;;17.10;10.48;;;13.00;99.90;;;;;;4962129;28;89526;-34
2023/10/06 06:00:08;;;;;;;14.85;10.07;;;13.10;99.90;;;;;;4970489;28;90356;-35
2023/10/06 06:02:37;;;;;;;12.57;9.60;;;13.10;99.90;;;;;;4959068;28;89245;-33
2023/10/06 06:05:04;;;;;;;12.10;9.15;;;13.10;99.90;;;;;;4960818;28;89252;-32
2023/10/06 06:07:33;;;;;;;19.52;10.73;;;13.10;99.90;;;;;;4957169;28;90116;-33
2023/10/06 06:09:59;;;;;;;12.73;9.18;;;13.20;99.90;;;;;;4960263;28;89480;-33
2023/10/06 06:12:25;;;;;;;17.00;10.45;;;13.20;99.90;;;;;;4962256;28;88931;-32
2023/10/06 06:14:54;;;;;;;15.05;9.70;;;13.20;99.90;;;;;;4973161;28;89342;-34
2023/10/06 06:17:20;;;;;;;17.85;9.50;;;13.20;99.90;;;;;;4969766;28;90033;-35
2023/10/06 06:19:46;;;;;;;12.48;9.40;;;13.20;99.90;;;;;;4965745;28;89147;-32
2023/10/06 06:22:13;;;;;;;13.73;9.52;;;13.30;99.90;;;;;;4964265;28;88397;-32
2023/10/06 06:24:38;;;;;;;18.10;8.20;;;13.30;99.90;;;;;;4966921;28;89355;-34
2023/10/06 06:27:04;;;;;;;17.88;9.15;;;13.30;99.90;;;;;;4968970;28;90342;-33
2023/10/06 06:29:30;;;;;;;17.38;8.68;;;13.40;99.90;;;;;;4973515;28;88911;-36
2023/10/06 06:31:56;;;;;;;10.98;9.98;;;13.30;99.90;;;;;;4969865;28;88302;-31
2023/10/06 06:34:22;;;;;;;12.00;9.60;;;13.40;99.90;;;;;;4973253;28;87662;-34
2023/10/06 06:36:48;;;;;;;17.60;9.23;;;13.40;99.90;;;;;;4965699;28;88889;-35
2023/10/06 06:39:14;;;;;;;15.60;8.73;;;13.40;99.90;;;;;;4976522;28;89412;-34
2023/10/06 06:41:40;;;;;;;16.02;8.88;;;13.40;99.90;;;;;;4966059;28;89226;-33
2023/10/06 06:44:05;;;;;;;12.80;8.35;;;13.50;99.90;;;;;;4961409;28;88024;-31
2023/10/06 06:46:31;;;;;;;18.10;9.85;;;13.50;99.90;;;;;;4976442;28;90159;-32
2023/10/06 06:48:57;;;;;;;13.18;8.63;;;13.60;99.90;;;;;;4977063;28;89679;-35
2023/10/06 06:51:27;;;;;;;11.60;8.30;;;13.60;99.90;;;;;;4972120;28;87601;-36
2023/10/06 06:53:57;;;;;;;20.60;10.48;;;13.60;99.90;;;;;;4969208;28;88451;-34
2023/10/06 06:56:29;;;;;;;16.38;9.75;;;13.60;99.90;;;;;;4951580;28;88875;-33
2023/10/06 06:58:59;;;;;;;13.05;8.02;;;13.70;99.90;;;;;;4969892;28;89933;-31
2023/10/06 07:01:25;;;;;;;14.30;8.52;;;13.70;99.90;;;;;;4954178;28;87653;-34
2023/10/06 07:03:50;;;;;;;12.95;8.57;;;13.70;99.90;;;;;;4964110;28;88412;-34
2023/10/06 07:06:16;;;;;;;11.43;7.78;;;13.80;99.90;;;;;;4969841;28;89275;-35
2023/10/06 07:08:45;;;;;;;9.27;7.43;;;13.80;99.90;;;;;;4970222;28;89651;-34
2023/10/06 07:11:10;;;;;;;9.02;8.10;;;13.90;99.90;;;;;;4957508;28;89889;-35
2023/10/06 07:13:37;;;;;;;13.75;8.30;;;13.90;99.90;;;;;;4956369;28;90118;-35
2023/10/06 07:16:05;;;;;;;13.00;8.52;;;13.90;99.90;;;;;;4957195;28;90312;-31
2023/10/06 07:18:31;;;;;;;11.07;7.22;;;13.90;99.90;;;;;;4962812;28;90936;-33
2023/10/06 07:20:57;;;;;;;8.13;6.97;;;13.90;99.90;;;;;;4964403;28;90714;-34
2023/10/06 07:23:23;;;;;;;10.95;8.10;;;14.00;99.90;;;;;;4969370;28;88478;-36
2023/10/06 07:25:49;;;;;;;12.77;9.20;;;14.00;99.90;;;;;;4970259;28;89774;-36
2023/10/06 07:28:14;;;;;;;11.82;8.20;;;14.00;99.90;;;;;;4968846;28;89253;-34
2023/10/06 07:30:40;;;;;;;13.00;7.88;;;14.00;99.90;;;;;;4971604;28;89050;-32
2023/10/06 07:33:06;;;;;;;12.88;8.15;;;14.10;99.90;;;;;;4965632;28;89522;-32
2023/10/06 07:35:47;;;;;;;11.00;7.18;;;14.10;99.90;;;;;;4964899;28;90131;-30
2023/10/06 07:38:13;;;;;;;10.57;7.20;;;14.10;99.90;;;;;;4975173;28;89236;-34
2023/10/06 07:40:42;;;;;;;13.52;8.43;;;14.10;99.90;;;;;;4963661;28;89451;-34
2023/10/06 07:43:09;;;;;;;12.23;7.60;;;14.10;99.90;;;;;;4962044;28;89626;-33
2023/10/06 07:45:36;;;;;;;14.38;9.10;;;14.10;99.90;;;;;;4962771;28;90267;-33
2023/10/06 07:48:05;;;;;;;17.92;8.40;;;14.20;99.90;;;;;;4975634;28;89530;-32
2023/10/06 07:50:33;;;;;;;11.73;8.77;;;14.20;99.90;;;;;;4961666;28;88178;-33
2023/10/06 07:53:00;;;;;;;14.43;8.48;;;14.20;99.90;;;;;;4975546;28;88276;-31
2023/10/06 07:55:26;;;;;;;12.45;8.05;;;14.20;99.90;;;;;;4971343;28;89741;-32
2023/10/06 07:57:51;;;;;;;11.30;8.52;;;14.20;99.90;;;;;;4962677;28;90087;-32
2023/10/06 08:00:29;;;;;;;11.85;8.65;;;14.20;99.90;;;;;;4973087;28;87557;-32
2023/10/06 08:02:55;;;;;;;;;;;14.20;99.90;;;;;;4980764;28;91045;-34
2023/10/06 08:05:21;;;;;;;15.30;9.48;;;14.30;99.90;;;;;;4983251;28;90663;-33
2023/10/06 08:07:47;;;;;;;10.93;7.72;;;14.30;99.90;;;;;;4962125;28;89379;-33
2023/10/06 08:10:18;;;;;;;13.05;7.78;;;14.40;99.90;;;;;;4961074;28;88102;-33
2023/10/06 08:12:45;;;;;;;17.02;8.45;;;14.30;99.90;;;;;;4948260;28;89577;-32
2023/10/06 08:15:17;;;;;;;10.82;7.00;;;14.40;99.90;;;;;;4973497;28;88500;-35
2023/10/06 08:17:45;;;;;;;10.55;7.60;;;14.40;99.90;;;;;;4981075;28;89870;-33
2023/10/06 08:20:12;;;;;;;10.18;7.30;;;14.40;99.90;;;;;;4980455;28;89284;-35
2023/10/06 08:22:41;;;;;;;10.15;7.70;;;14.40;99.90;;;;;;4981403;28;87967;-34
2023/10/06 08:25:09;;;;;;;13.10;8.05;;;14.50;99.90;;;;;;4977894;28;90367;-32
2023/10/06 08:27:35;;;;;;;16.90;8.50;;;14.50;99.90;;;;;;4961669;28;89969;-32
2023/10/06 08:30:01;;;;;;;19.08;8.68;;;14.50;99.90;;;;;;4974651;28;88377;-33
2023/10/06 08:32:27;;;;;;;9.50;7.15;;;14.50;99.90;;;;;;4961670;28;89500;-32
2023/10/06 08:34:53;;;;;;;11.82;8.68;;;14.60;99.90;;;;;;4965279;28;90369;-34
2023/10/06 08:37:19;;;;;;;11.10;8.00;;;14.60;99.90;;;;;;4980903;28;89536;-35
2023/10/06 08:39:46;;;;;;;14.77;9.90;;;14.60;99.90;;;;;;4973730;28;87519;-34
2023/10/06 08:42:15;;;;;;;12.05;8.05;;;14.60;99.90;;;;;;4962543;28;89648;-33
2023/10/06 08:44:44;;;;;;;14.10;8.13;;;14.60;99.90;;;;;;4980389;28;90757;-36
2023/10/06 08:47:13;;;;;;;15.00;7.90;;;14.60;99.90;;;;;;4975235;28;89417;-33
2023/10/06 08:49:43;;;;;;;;;;;14.70;99.90;;;;;;4960743;28;87528;-34
2023/10/06 08:52:12;;;;;;;13.15;8.65;;;14.70;99.90;;;;;;4956292;28;88972;-33
2023/10/06 08:54:39;;;;;;;19.30;9.13;;;14.80;99.90;;;;;;4978247;28;88771;-34
2023/10/06 08:57:04;;;;;;;15.95;9.82;;;14.80;99.90;;;;;;4968713;28;88832;-34
2023/10/06 08:59:34;;;;;;;10.45;8.15;;;14.90;99.90;;;;;;4966089;28;88835;-33
2023/10/06 09:02:01;;;;;;;16.02;10.13;;;15.00;99.90;;;;;;4980833;28;88964;-33
2023/10/06 09:04:37;;;;;;;17.17;8.35;;;15.00;99.90;;;;;;4979326;28;89275;-33
2023/10/06 09:07:12;;;;;;;13.48;8.85;;;15.10;99.90;;;;;;4979690;28;89784;-35
2023/10/06 09:09:40;;;;;;;12.25;8.48;;;15.20;99.90;;;;;;4960782;28;88487;-33
2023/10/06 09:12:07;;;;;;;;;;;15.20;99.90;;;;;;4956076;28;88087;-34
2023/10/06 09:14:33;;;;;;;17.48;9.18;;;15.30;99.90;;;;;;4965861;28;90620;-33
2023/10/06 09:17:01;;;;;;;11.48;8.50;;;15.40;99.90;;;;;;4972679;28;89086;-34
2023/10/06 09:19:46;;;;;;;14.52;9.55;;;15.50;99.90;;;;;;4976857;28;88219;-32
2023/10/06 09:22:11;;;;;;;14.02;9.30;;;15.50;99.90;;;;;;4970420;28;90118;-35
2023/10/06 09:24:39;;;;;;;10.60;8.13;;;15.60;99.90;;;;;;4966800;28;89577;-34
2023/10/06 09:27:25;;;;;;;13.35;9.02;;;15.60;99.90;;;;;;4958026;28;90250;-34
2023/10/06 09:29:59;;;;;;;16.02;10.00;;;15.70;99.90;;;;;;4970222;28;88952;-34
2023/10/06 09:32:25;;;;;;;13.57;8.68;;;15.70;99.90;;;;;;4960084;28;89295;-34
2023/10/06 09:34:53;;;;;;;11.18;8.48;;;15.80;99.90;;;;;;4966864;28;90035;-35
2023/10/06 09:37:20;;;;;;;11.23;8.80;;;15.80;99.90;;;;;;4964932;28;87794;-35
2023/10/06 09:40:10;;;;;;;9.48;5.72;;;16.00;99.90;;;;;;4961180;28;89019;-31
2023/10/06 09:42:36;;;;;;;12.07;9.07;;;16.00;99.90;;;;;;4960465;28;89782;-36
2023/10/06 09:45:15;;;;;;;11.48;8.20;;;16.00;99.90;;;;;;4964274;28;90297;-32
2023/10/06 09:47:50;;;;;;;10.25;7.57;;;16.00;99.90;;;;;;4970201;28;88291;-36
2023/10/06 09:50:19;;;;;;;12.77;8.05;;;16.10;99.90;;;;;;4965423;28;88361;-34
2023/10/06 09:52:47;;;;;;;17.33;8.43;;;16.30;99.90;;;;;;4957921;28;89083;-35
2023/10/06 09:55:17;;;;;;;12.23;8.32;;;16.30;99.90;;;;;;4955181;28;90774;-34
2023/10/06 09:57:47;;;;;;;11.90;7.25;;;16.30;99.90;;;;;;4957701;28;90163;-33
2023/10/06 10:00:19;;;;;;;12.48;7.32;;;16.30;99.90;;;;;;4956256;28;89544;-35
2023/10/06 10:02:47;;;;;;;10.38;7.28;;;16.40;99.90;;;;;;4957090;28;87690;-35
2023/10/06 10:05:20;;;;;;;11.25;9.48;;;16.40;99.90;;;;;;4956270;28;90157;-35
2023/10/06 10:07:48;;;;;;;14.13;8.82;;;16.40;99.90;;;;;;4957777;28;89694;-31
2023/10/06 10:10:14;;;;;;;;;;;16.40;99.90;;;;;;4957643;28;88676;-33
2023/10/06 10:13:08;;;;;;;9.13;6.45;;;16.40;99.90;;;;;;4958696;28;89931;-35
2023/10/06 10:15:54;;;;;;;10.40;6.60;;;16.40;99.90;;;;;;4956925;28;91490;-34
2023/10/06 10:18:34;;;;;;;12.38;8.10;;;16.40;99.90;;;;;;4956570;28;90052;-33
2023/10/06 10:21:01;;;;;;;14.57;7.40;;;16.50;99.90;;;;;;4958444;28;89278;-34
2023/10/06 10:23:30;;;;;;;9.55;7.03;;;16.40;99.90;;;;;;4957611;28;89278;-35
2023/10/06 10:26:23;;;;;;;16.30;7.72;;;16.50;99.90;;;;;;4955333;28;90706;-31
2023/10/06 10:29:17;;;;;;;9.95;8.02;;;16.50;99.90;;;;;;4942967;28;90119;-35
2023/10/06 10:31:47;;;;;;;9.13;6.65;;;16.60;99.90;;;;;;4956432;28;88703;-35
2023/10/06 10:34:20;;;;;;;9.45;7.32;;;16.60;99.90;;;;;;4958392;28;89125;-33
2023/10/06 10:37:07;;;;;;;9.52;6.10;;;16.60;99.90;;;;;;4958453;28;90381;-32
2023/10/06 10:39:49;;;;;;;16.23;8.77;;;16.70;99.90;;;;;;4974796;28;89779;-33
2023/10/06 10:42:22;;;;;;;9.93;7.45;;;16.90;99.90;;;;;;4974209;28;88978;-33
2023/10/06 10:44:49;;;;;;;12.00;7.07;;;17.00;99.90;;;;;;4967819;28;90093;-36
2023/10/06 10:47:19;;;;;;;6.97;6.25;;;17.10;99.90;;;;;;4956710;28;88704;-34
2023/10/06 10:49:46;;;;;;;8.00;6.10;;;17.30;99.90;;;;;;4961038;28;90297;-35
2023/10/06 10:52:13;;;;;;;13.20;6.65;;;17.40;99.90;;;;;;4977245;28;88127;-32
2023/10/06 10:54:40;;;;;;;9.23;5.68;;;17.40;99.90;;;;;;4972533;28;88678;-32
2023/10/06 10:57:13;;;;;;;11.50;6.57;;;17.40;99.90;;;;;;4968910;28;88706;-34
2023/10/06 11:00:11;;;;;;;15.40;7.25;;;17.50;99.90;;;;;;4978328;28;89635;-33
2023/10/06 11:02:42;;;;;;;15.15;6.53;;;17.70;99.90;;;;;;4975259;28;88225;-34
2023/10/06 11:05:09;;;;;;;9.82;5.75;;;17.90;99.90;;;;;;4978701;28;89349;-33
2023/10/06 11:07:36;;;;;;;8.63;6.38;;;18.00;99.90;;;;;;4977642;28;90193;-33
2023/10/06 11:10:03;;;;;;;6.90;5.45;;;17.90;99.90;;;;;;4967551;28;89492;-34
2023/10/06 11:12:30;;;;;;;12.25;6.65;;;17.90;99.90;;;;;;4960086;28;89647;-33
2023/10/06 11:15:13;;;;;;;10.30;6.17;;;17.90;99.90;;;;;;4971347;28;89890;-34
2023/10/06 11:17:41;;;;;;;8.68;5.82;;;17.90;99.90;;;;;;4964310;28;90284;-33
2023/10/06 11:23:03;;;;;;;11.57;5.80;;;17.90;99.90;;;;;;4978573;28;88542;-34
2023/10/06 11:25:32;;;;;;;12.27;5.53;;;18.00;99.90;;;;;;4974286;28;87724;-35
2023/10/06 11:28:02;;;;;;;9.90;6.30;;;17.90;99.90;;;;;;4975951;28;90304;-33
2023/10/06 11:30:28;;;;;;;10.18;5.80;;;18.00;99.90;;;;;;4978102;28;91533;-32
2023/10/06 11:32:57;;;;;;;10.30;5.43;;;18.00;99.90;;;;;;4975957;28;88784;-34
2023/10/06 11:35:24;;;;;;;5.47;4.70;;;18.00;99.90;;;;;;4961064;28;88392;-32
2023/10/06 11:37:50;;;;;;;11.25;4.72;;;18.00;99.90;;;;;;4971310;28;90863;-35
2023/10/06 11:40:16;;;;;;;9.77;4.60;;;18.00;99.90;;;;;;4971122;28;89745;-35
2023/10/06 11:42:43;;;;;;;12.25;5.25;;;17.90;99.90;;;;;;4979392;28;87627;-35
2023/10/06 11:45:27;;;;;;;7.35;5.38;;;17.90;99.90;;;;;;4966841;28;88823;-35
2023/10/06 11:47:54;;;;;;;14.15;5.38;;;17.90;99.90;;;;;;4973612;28;90307;-35
2023/10/06 11:50:25;;;;;;;5.07;4.43;;;17.90;99.90;;;;;;4971129;28;89166;-33
2023/10/06 11:52:51;;;;;;;12.85;4.97;;;18.00;99.90;;;;;;4959785;28;88256;-33
2023/10/06 11:55:25;;;;;;;7.55;4.90;;;17.90;99.90;;;;;;4959379;28;90301;-33
2023/10/06 11:57:54;;;;;;;8.50;5.43;;;17.90;99.90;;;;;;4976116;28;90331;-35
2023/10/06 12:00:37;;;;;;;10.10;5.25;;;17.90;99.90;;;;;;4967670;28;89476;-33
2023/10/06 12:03:03;;;;;;;11.52;5.47;;;18.00;99.90;;;;;;4954183;28;89058;-32
2023/10/06 12:05:30;;;;;;;10.93;4.40;;;18.10;99.90;;;;;;4978974;28;88267;-32
2023/10/06 12:08:08;;;;;;;6.78;5.22;;;18.00;99.90;;;;;;4977403;28;90383;-34
2023/10/06 12:10:50;;;;;;;10.70;5.65;;;18.00;99.90;;;;;;4978129;28;89790;-32
2023/10/06 12:13:16;;;;;;;9.73;5.25;;;18.00;99.90;;;;;;4978876;28;87740;-33
2023/10/06 12:15:44;;;;;;;10.18;4.60;;;18.00;99.90;;;;;;4976979;28;88727;-33
2023/10/06 12:18:11;;;;;;;13.05;5.97;;;18.00;99.90;;;;;;4965497;28;88966;-35
2023/10/06 12:20:37;;;;;;;6.60;4.80;;;18.00;99.90;;;;;;4968946;28;89205;-33
2023/10/06 12:23:02;;;;;;;9.63;5.30;;;18.10;99.90;;;;;;4974624;28;89363;-36
2023/10/06 12:25:29;;;;;;;8.00;4.60;;;18.10;99.90;;;;;;4963053;28;89167;-34
2023/10/06 12:27:56;;;;;;;13.88;5.88;;;18.20;99.90;;;;;;4965019;28;89968;-32
2023/10/06 12:30:24;;;;;;;10.60;5.30;;;18.50;99.90;;;;;;4971981;28;89493;-35
2023/10/06 12:32:50;;;;;;;17.80;5.50;;;18.70;99.90;;;;;;4974178;28;88467;-34
2023/10/06 12:35:18;;;;;;;10.82;5.07;;;18.60;99.90;;;;;;4973576;28;89547;-32
2023/10/06 12:37:45;;;;;;;14.32;5.32;;;18.60;99.90;;;;;;4975187;28;91352;-34
2023/10/06 12:40:14;;;;;;;14.33;5.23;;;18.60;99.90;;;;;;4967341;28;89079;-33
2023/10/06 12:42:40;;;;;;;;;;;18.70;99.90;;;;;;4958602;28;88943;-32
2023/10/06 12:45:07;;;;;;;11.75;5.75;;;18.80;99.90;;;;;;4970029;28;88999;-34
2023/10/06 12:47:33;;;;;;;8.13;4.63;;;18.80;99.90;;;;;;4971916;28;90140;-34
2023/10/06 12:50:05;;;;;;;14.32;5.47;;;18.90;99.90;;;;;;4962347;28;90742;-33
2023/10/06 12:52:37;;;;;;;10.13;5.45;;;19.00;99.90;;;;;;4977763;28;88908;-37
2023/10/06 12:55:10;;;;;;;10.00;5.13;;;19.00;99.90;;;;;;4947122;28;88341;-33
2023/10/06 12:57:41;;;;;;;5.65;4.22;;;19.00;99.90;;;;;;4958279;28;90060;-32